Darstellungsparameter: Aktuell verwendete Einstellungen:
Skalierung der Graphiken ... ?
xyx+y,   Skalierungsfaktor:      Skalierung: Modus: x, Faktor: 1
Darstellungszeitraum ... ?
Vom - - bis: - -   Zeitraum: 11.12.2020 - 17.12.2020
Min/Max/Avg-Anzeige ... ?
Zeige MMA aktuell
Zeige MMA Monat
Zeige MMA alles
Zeige --A aktuell
Zeige --A Monat
Zeige --A alles
Keine MMA-Anzeige
MMA:
Average (ber die Originaldaten)
MMA-Basis: 23.02.2003 - 03.08.2020
Quicknavigation für Darstellung... ?
Tage:      1T, 2T, 3T, 5T -1T -2T -3T -5T +1T +2T +3T +5T
Wochen: 1W, 2W, 3W -1W -2W -3W +1W +2W +3W
Monate: 1M, 3M, 6M -1M -3M -6M +1M +3M +6M
Jahre:    1J, 3J, 5J, 10J -1J -3J -5J -10J +1J +3J +5J +10J
Nutze für die Darstellung ... ?
Originaldaten oder ...
Mittelwerte Minima Maxima auf...
Stundenbasis Tagesbasis Wochenbasis
Monatsbasis Jahresbasis      Datenbasis: Mittelwerte auf Stundenbasis
Darstellen als:
Statistik (Auto) Statistik J:M      Darstellung:
Zur Graphik,    zurück zur Übersicht aller Sensoren.
 
Tabellarische Datenbersicht: ?
 
Sensor: Nr:Datum:Temp:Abs-Feuchte:Windchill:Wind:
Aussen-T/F 1 11-12-2020 00:00:00 1.39167 C 4.9 g/m*3 1.39 C 0.26667 km/h
2 11-12-2020 01:00:00 1.2 C 4.82 g/m*3 1.2 C 0 km/h
3 11-12-2020 02:00:00 0.325 C 4.59 g/m*3 0.33 C 0.66667 km/h
4 11-12-2020 03:00:00 0.925 C 4.82 g/m*3 0.93 C 2.54167 km/h
5 11-12-2020 04:00:00 0.65833 C 4.69 g/m*3 0.66 C 1.2 km/h
6 11-12-2020 05:00:00 0.15833 C 4.57 g/m*3 0.16 C 1.86667 km/h
7 11-12-2020 06:00:00 0.54167 C 4.74 g/m*3 0.54 C 4.55 km/h
8 11-12-2020 07:00:00 1.64167 C 4.93 g/m*3 1.64 C 3.34167 km/h
9 11-12-2020 08:00:00 2.14167 C 4.96 g/m*3 2.14 C 4.825 km/h
10 11-12-2020 09:00:00 2.575 C 5.07 g/m*3 0.97 C 5.9 km/h
11 11-12-2020 10:00:00 3.125 C 5.21 g/m*3 3.13 C 4.00833 km/h
12 11-12-2020 11:00:00 3.44167 C 5.38 g/m*3 1.83 C 6.29167 km/h
13 11-12-2020 12:00:00 3.7 C 5.54 g/m*3 2.47 C 5.34167 km/h
14 11-12-2020 13:00:00 4.44167 C 5.66 g/m*3 2.85 C 6.71667 km/h
15 11-12-2020 14:00:00 4.49167 C 5.58 g/m*3 2.28 C 9.025 km/h
16 11-12-2020 15:00:00 4.05833 C 5.56 g/m*3 2.16 C 7.51667 km/h
17 11-12-2020 16:00:00 3.63333 C 5.58 g/m*3 1.91 C 6.71667 km/h
18 11-12-2020 17:00:00 3.71667 C 5.66 g/m*3 1.47 C 8.58333 km/h
19 11-12-2020 18:00:00 3.68333 C 5.71 g/m*3 2.15 C 6.16667 km/h
20 11-12-2020 19:00:00 3.79167 C 5.76 g/m*3 2.01 C 6.98333 km/h
21 11-12-2020 20:00:00 3.94167 C 5.83 g/m*3 3.94 C 1.6 km/h
22 11-12-2020 21:00:00 3.925 C 5.86 g/m*3 3.93 C 0 km/h
23 11-12-2020 22:00:00 3.825 C 5.85 g/m*3 3.83 C 0 km/h
24 11-12-2020 23:00:00 3.85 C 5.92 g/m*3 3.85 C 0 km/h
25 12-12-2020 00:00:00 3.81667 C 5.94 g/m*3 3.82 C 0.4 km/h
Sensor: Nr:Datum:Temp:Abs-Feuchte:Windchill:Wind:
Aussen-T/F 26 12-12-2020 01:00:00 4.05 C 6.06 g/m*3 4.05 C 0.66667 km/h
27 12-12-2020 02:00:00 4.40833 C 6.22 g/m*3 4.41 C 1.2 km/h
28 12-12-2020 03:00:00 4.80833 C 6.38 g/m*3 4.81 C 0 km/h
29 12-12-2020 04:00:00 4.9 C 6.41 g/m*3 4.9 C 0 km/h
30 12-12-2020 05:00:00 4.90833 C 6.42 g/m*3 4.91 C 0 km/h
31 12-12-2020 06:00:00 5.05833 C 6.48 g/m*3 5.06 C 0 km/h
32 12-12-2020 07:00:00 5.15 C 6.58 g/m*3 5.15 C 0.4 km/h
33 12-12-2020 08:00:00 5.28333 C 6.65 g/m*3 5.28 C 0 km/h
34 12-12-2020 09:00:00 5.625 C 6.8 g/m*3 5.63 C 0 km/h
35 12-12-2020 10:00:00 6.16667 C 7.03 g/m*3 6.17 C 0 km/h
36 12-12-2020 11:00:00 6.80833 C 7.18 g/m*3 6.81 C 0 km/h
37 12-12-2020 12:00:00 7.4 C 7.31 g/m*3 7.4 C 0.4 km/h
38 12-12-2020 13:00:00 7.7 C 7.38 g/m*3 7.7 C 0.66667 km/h
39 12-12-2020 14:00:00 7.68333 C 7.44 g/m*3 7.68 C 0.26667 km/h
40 12-12-2020 15:00:00 7.475 C 7.53 g/m*3 7.48 C 0 km/h
41 12-12-2020 16:00:00 7.2 C 7.43 g/m*3 7.2 C 0 km/h
42 12-12-2020 17:00:00 6.7 C 7.21 g/m*3 6.7 C 0 km/h
43 12-12-2020 18:00:00 6.66667 C 7.23 g/m*3 6.67 C 0 km/h
44 12-12-2020 19:00:00 6.36667 C 7.12 g/m*3 6.37 C 0 km/h
45 12-12-2020 20:00:00 6.66667 C 7.28 g/m*3 6.67 C 0.13333 km/h
46 12-12-2020 21:00:00 6.675 C 7.29 g/m*3 6.68 C 0 km/h
47 12-12-2020 22:00:00 6.55 C 7.27 g/m*3 6.55 C 0 km/h
48 12-12-2020 23:00:00 6.2 C 7.1 g/m*3 6.2 C 0 km/h
49 13-12-2020 00:00:00 6.35833 C 7.21 g/m*3 6.36 C 0 km/h
50 13-12-2020 01:00:00 6.18333 C 7.13 g/m*3 6.18 C 0 km/h
Sensor: Nr:Datum:Temp:Abs-Feuchte:Windchill:Wind:
Aussen-T/F 51 13-12-2020 02:00:00 6.40833 C 7.23 g/m*3 6.41 C 0 km/h
52 13-12-2020 03:00:00 6.83333 C 7.43 g/m*3 6.83 C 0.13333 km/h
53 13-12-2020 04:00:00 7.23333 C 7.63 g/m*3 7.23 C 2.8 km/h
54 13-12-2020 05:00:00 7.3 C 7.66 g/m*3 7.3 C 0 km/h
55 13-12-2020 06:00:00 7.275 C 7.65 g/m*3 7.28 C 1.46667 km/h
56 13-12-2020 07:00:00 7.30833 C 7.67 g/m*3 7.31 C 2.53333 km/h
57 13-12-2020 08:00:00 7.21667 C 7.62 g/m*3 7.22 C 2.4 km/h
58 13-12-2020 09:00:00 7.24167 C 7.64 g/m*3 7.24 C 1.2 km/h
59 13-12-2020 10:00:00 6.45833 C 7.25 g/m*3 6.46 C 2.53333 km/h
60 13-12-2020 11:00:00 6.39167 C 7.22 g/m*3 5.31 C 6.03333 km/h
61 13-12-2020 12:00:00 6.6 C 7.2 g/m*3 5.47 C 6.31667 km/h
62 13-12-2020 13:00:00 7.825 C 7.25 g/m*3 7.09 C 5.61667 km/h
63 13-12-2020 14:00:00 7.675 C 7.03 g/m*3 7.68 C 4.28333 km/h
64 13-12-2020 15:00:00 6.46667 C 6.66 g/m*3 6.47 C 4.26667 km/h
65 13-12-2020 16:00:00 5.325 C 6.31 g/m*3 5.33 C 4.93333 km/h
66 13-12-2020 17:00:00 4.04167 C 5.9 g/m*3 4.04 C 4.8 km/h
67 13-12-2020 18:00:00 3.5 C 5.79 g/m*3 3.5 C 0 km/h
68 13-12-2020 19:00:00 3.6 C 5.88 g/m*3 3.6 C 0 km/h
69 13-12-2020 20:00:00 3.66667 C 5.93 g/m*3 3.67 C 0.4 km/h
70 13-12-2020 21:00:00 4.24167 C 6.16 g/m*3 4.24 C 1.06667 km/h
71 13-12-2020 22:00:00 3.49167 C 5.78 g/m*3 3.49 C 1.73333 km/h
72 13-12-2020 23:00:00 3.15 C 5.69 g/m*3 3.15 C 2.80833 km/h
73 14-12-2020 00:00:00 3.3 C 5.78 g/m*3 3.3 C 2.8 km/h
74 14-12-2020 01:00:00 3.90833 C 6.02 g/m*3 3.91 C 0 km/h
75 14-12-2020 02:00:00 4.44167 C 6.15 g/m*3 4.44 C 2 km/h
Sensor: Nr:Datum:Temp:Abs-Feuchte:Windchill:Wind:
Aussen-T/F 76 14-12-2020 03:00:00 4.04167 C 6 g/m*3 4.04 C 1.33333 km/h
77 14-12-2020 04:00:00 4.78333 C 6.36 g/m*3 4.78 C 0.26667 km/h
78 14-12-2020 05:00:00 5.15833 C 6.52 g/m*3 5.16 C 0 km/h
79 14-12-2020 06:00:00 5.3 C 6.52 g/m*3 5.3 C 0 km/h
80 14-12-2020 07:00:00 5.50833 C 6.59 g/m*3 5.51 C 0.13333 km/h
81 14-12-2020 08:00:00 5.675 C 6.6 g/m*3 5.68 C 1.06667 km/h
82 14-12-2020 09:00:00 6.21667 C 6.66 g/m*3 6.22 C 1.46667 km/h
83 14-12-2020 10:00:00 7.025 C 6.78 g/m*3 7.03 C 0.53333 km/h
84 14-12-2020 11:00:00 6.55833 C 6.71 g/m*3 6.56 C 0.93333 km/h
85 14-12-2020 12:00:00 6.48333 C 6.79 g/m*3 6.48 C 3.34167 km/h
86 14-12-2020 13:00:00 7.775 C 7.24 g/m*3 7.78 C 1.2 km/h
87 14-12-2020 14:00:00 9.05 C 7.22 g/m*3 9.05 C 2.26667 km/h
88 14-12-2020 15:00:00 8.89167 C 7.22 g/m*3 8.89 C 1.075 km/h
89 14-12-2020 16:00:00 7.40833 C 6.8 g/m*3 7.41 C 2.66667 km/h
90 14-12-2020 17:00:00 6.05 C 6.49 g/m*3 6.05 C 1.06667 km/h
91 14-12-2020 18:00:00 5.85833 C 6.51 g/m*3 5.86 C 0.8 km/h
92 14-12-2020 19:00:00 6.05 C 6.6 g/m*3 6.05 C 2.26667 km/h
93 14-12-2020 20:00:00 6.10833 C 6.65 g/m*3 6.11 C 0.13333 km/h
94 14-12-2020 21:00:00 6.28333 C 6.67 g/m*3 6.28 C 0.4 km/h
95 14-12-2020 22:00:00 7.24167 C 6.76 g/m*3 7.24 C 3.61667 km/h
96 14-12-2020 23:00:00 6.94167 C 6.71 g/m*3 6.94 C 0.26667 km/h
97 15-12-2020 00:00:00 6.70833 C 6.76 g/m*3 6.71 C 0.53333 km/h
98 15-12-2020 01:00:00 6.75 C 6.94 g/m*3 6.75 C 2 km/h
99 15-12-2020 02:00:00 6.775 C 7.11 g/m*3 6.78 C 1.2 km/h
100 15-12-2020 03:00:00 6.8 C 7.22 g/m*3 6.8 C 2.4 km/h
Sensor: Nr:Datum:Temp:Abs-Feuchte:Windchill:Wind:
Aussen-T/F 101 15-12-2020 04:00:00 6.8 C 7.27 g/m*3 6.8 C 0.8 km/h
102 15-12-2020 05:00:00 6.78333 C 7.33 g/m*3 6.78 C 0 km/h
103 15-12-2020 06:00:00 6.775 C 7.33 g/m*3 6.78 C 0 km/h
104 15-12-2020 07:00:00 6.73333 C 7.31 g/m*3 6.73 C 0.13333 km/h
105 15-12-2020 08:00:00 6.56667 C 7.26 g/m*3 6.57 C 0 km/h
106 15-12-2020 09:00:00 6.96667 C 7.5 g/m*3 6.97 C 0 km/h
107 15-12-2020 10:00:00 7.66667 C 7.85 g/m*3 7.67 C 0.66667 km/h
108 15-12-2020 11:00:00 8.45 C 8.26 g/m*3 8.45 C 1.06667 km/h
109 15-12-2020 12:00:00 9.00833 C 8.56 g/m*3 9.01 C 0.93333 km/h
110 15-12-2020 13:00:00 9.7 C 8.94 g/m*3 9.7 C 0 km/h
111 15-12-2020 14:00:00 9.80833 C 9 g/m*3 9.81 C 0 km/h
112 15-12-2020 15:00:00 9.91667 C 9.07 g/m*3 9.92 C 0 km/h
113 15-12-2020 16:00:00 9.86667 C 9.04 g/m*3 9.87 C 0.26667 km/h
114 15-12-2020 17:00:00 9.75833 C 8.98 g/m*3 9.76 C 0 km/h
115 15-12-2020 18:00:00 9.79167 C 8.99 g/m*3 9.79 C 2.8 km/h
116 15-12-2020 19:00:00 8.9 C 8.5 g/m*3 8.9 C 3.33333 km/h
117 15-12-2020 20:00:00 7.90833 C 7.97 g/m*3 7.91 C 2.675 km/h
118 15-12-2020 21:00:00 7.10833 C 7.56 g/m*3 7.11 C 1.86667 km/h
119 15-12-2020 22:00:00 6.225 C 7.14 g/m*3 6.23 C 0.13333 km/h
120 15-12-2020 23:00:00 5.91667 C 7.01 g/m*3 5.92 C 0.13333 km/h
121 16-12-2020 00:00:00 6.625 C 7.37 g/m*3 6.63 C 0.13333 km/h
122 16-12-2020 01:00:00 6.325 C 7.19 g/m*3 6.33 C 0.13333 km/h
123 16-12-2020 02:00:00 6.41667 C 7.3 g/m*3 6.42 C 0.26667 km/h
124 16-12-2020 03:00:00 6.73333 C 7.46 g/m*3 6.73 C 0.13333 km/h
125 16-12-2020 04:00:00 6.70833 C 7.45 g/m*3 6.71 C 0 km/h
Sensor: Nr:Datum:Temp:Abs-Feuchte:Windchill:Wind:
Aussen-T/F 126 16-12-2020 05:00:00 6.3 C 7.19 g/m*3 6.3 C 0 km/h
127 16-12-2020 06:00:00 6.425 C 7.3 g/m*3 6.43 C 0 km/h
128 16-12-2020 07:00:00 6.50833 C 7.35 g/m*3 6.51 C 0.13333 km/h
129 16-12-2020 08:00:00 7.15833 C 7.67 g/m*3 7.16 C 0 km/h
130 16-12-2020 09:00:00 7.44167 C 7.81 g/m*3 7.44 C 0 km/h
131 16-12-2020 10:00:00 8.43333 C 8.33 g/m*3 8.43 C 0.13333 km/h
132 16-12-2020 11:00:00 9.43333 C 8.88 g/m*3 9.43 C 0.4 km/h
133 16-12-2020 12:00:00 9.89167 C 9.15 g/m*3 9.89 C 4.275 km/h
134 16-12-2020 13:00:00 9.91667 C 9.06 g/m*3 9.92 C 4.41667 km/h
135 16-12-2020 14:00:00 9.76667 C 8.85 g/m*3 9.77 C 2.93333 km/h
136 16-12-2020 15:00:00 9.46667 C 8.65 g/m*3 9.47 C 0.4 km/h
137 16-12-2020 16:00:00 7.875 C 7.79 g/m*3 7.88 C 1.6 km/h
138 16-12-2020 17:00:00 7.125 C 7.51 g/m*3 7.13 C 2.93333 km/h
139 16-12-2020 18:00:00 6.875 C 7.41 g/m*3 6.88 C 3.06667 km/h
140 16-12-2020 19:00:00 7 C 7.52 g/m*3 7 C 2.13333 km/h
141 16-12-2020 20:00:00 6.71667 C 7.38 g/m*3 6.72 C 2 km/h
142 16-12-2020 21:00:00 6.31667 C 7.19 g/m*3 6.32 C 2.4 km/h
143 16-12-2020 22:00:00 6.85833 C 7.47 g/m*3 6.86 C 2.8 km/h
144 16-12-2020 23:00:00 7.23333 C 7.67 g/m*3 7.23 C 1.73333 km/h
145 17-12-2020 00:00:00 7.04167 C 7.54 g/m*3 7.04 C 2 km/h
146 17-12-2020 01:00:00 6.53333 C 7.29 g/m*3 6.53 C 2.13333 km/h
147 17-12-2020 02:00:00 6.225 C 7.16 g/m*3 6.23 C 0.66667 km/h
148 17-12-2020 03:00:00 7.05833 C 7.62 g/m*3 7.06 C 3.33333 km/h
149 17-12-2020 04:00:00 7.25 C 7.72 g/m*3 7.25 C 0.8 km/h
150 17-12-2020 05:00:00 7.2 C 7.69 g/m*3 7.2 C 1.86667 km/h
Sensor: Nr:Datum:Temp:Abs-Feuchte:Windchill:Wind:
Aussen-T/F 151 17-12-2020 06:00:00 7.25 C 7.7 g/m*3 7.25 C 2 km/h
152 17-12-2020 07:00:00 6.79167 C 7.45 g/m*3 6.79 C 1.2 km/h
153 17-12-2020 08:00:00 7.03333 C 7.61 g/m*3 7.03 C 0.66667 km/h
154 17-12-2020 09:00:00 7.79167 C 7.99 g/m*3 7.79 C 0.53333 km/h
155 17-12-2020 10:00:00 8.94167 C 8.61 g/m*3 8.94 C 2.80833 km/h
156 17-12-2020 11:00:00 9.04167 C 8.66 g/m*3 9.04 C 4.00833 km/h
157 17-12-2020 12:00:00 8.85833 C 8.4 g/m*3 7.71 C 7.8 km/h
158 17-12-2020 13:00:00 9.70833 C 8.36 g/m*3 8.34 C 9.65833 km/h
159 17-12-2020 14:00:00 10.175 C 8.27 g/m*3 9.2 C 8.05833 km/h
160 17-12-2020 15:00:00 9.58333 C 7.92 g/m*3 8.48 C 8.19167 km/h
161 17-12-2020 16:00:00 8.56667 C 7.57 g/m*3 7.57 C 6.95833 km/h
162 17-12-2020 17:00:00 7.29167 C 7.21 g/m*3 6.4 C 5.86667 km/h
163 17-12-2020 18:00:00 6.69167 C 7.11 g/m*3 6.69 C 3.86667 km/h
164 17-12-2020 19:00:00 5.05833 C 6.37 g/m*3 5.06 C 0.53333 km/h
165 17-12-2020 20:00:00 4.93333 C 6.46 g/m*3 4.93 C 3.2 km/h
166 17-12-2020 21:00:00 5.03333 C 6.54 g/m*3 5.03 C 0.8 km/h
167 17-12-2020 22:00:00 4.85 C 6.46 g/m*3 4.85 C 0.26667 km/h
168 17-12-2020 23:00:00 4.63333 C 6.39 g/m*3 4.63 C 0 km/h

Maximal/Minimal-Werte vom 23.02.2003 - 03.08.2020

Sensor Min Max Avg
Temp
(Aussen-T/F)
-16.4 °C
20-12-2009  01:30:01
40.4 °C
25-07-2019  16:20:00
11.23 °C

Die Daten stammen von einer Davis Vantage Pro 2 Wetter-Station und werden unter Linux mit der Software wview2wettercgi und aufbereitet. Alle Angaben erfolgen ohne Gewähr für ihre Vollständigkeit oder Richtigkeit.
Kontakt: Rainer Krienke krienke@uni-koblenz.de . Meine Webseiten an der Uni Koblenz oder privat.
Version: $Revision: 0.78 $